sensor_id;sensor_type;location;lat;lon;timestamp;P1;durP1;ratioP1;P2;durP2;ratioP2
83190;SDS011;73087;49.924;22.080;2023-10-19T00:00:12;26.80;;;11.45;;
83190;SDS011;73087;49.924;22.080;2023-10-19T00:01:13;22.42;;;10.60;;
83190;SDS011;73087;49.924;22.080;2023-10-19T00:02:14;25.33;;;10.63;;
83190;SDS011;73087;49.924;22.080;2023-10-19T00:03:16;25.13;;;11.00;;
83190;SDS011;73087;49.924;22.080;2023-10-19T00:04:17;20.60;;;10.98;;
83190;SDS011;73087;49.924;22.080;2023-10-19T00:05:17;24.58;;;11.85;;
83190;SDS011;73087;49.924;22.080;2023-10-19T00:06:18;26.30;;;11.50;;
83190;SDS011;73087;49.924;22.080;2023-10-19T00:07:19;26.77;;;12.20;;
83190;SDS011;73087;49.924;22.080;2023-10-19T00:08:19;25.23;;;11.93;;
83190;SDS011;73087;49.924;22.080;2023-10-19T00:09:20;23.50;;;10.98;;
83190;SDS011;73087;49.924;22.080;2023-10-19T00:10:20;27.00;;;11.70;;
83190;SDS011;73087;49.924;22.080;2023-10-19T00:11:21;22.73;;;11.82;;
83190;SDS011;73087;49.924;22.080;2023-10-19T00:12:21;26.85;;;12.63;;
83190;SDS011;73087;49.924;22.080;2023-10-19T00:13:22;22.75;;;11.93;;
83190;SDS011;73087;49.924;22.080;2023-10-19T00:14:22;32.65;;;14.80;;
83190;SDS011;73087;49.924;22.080;2023-10-19T00:15:23;32.63;;;16.42;;
83190;SDS011;73087;49.924;22.080;2023-10-19T00:16:23;34.40;;;16.83;;
83190;SDS011;73087;49.924;22.080;2023-10-19T00:17:24;30.73;;;14.32;;
83190;SDS011;73087;49.924;22.080;2023-10-19T00:18:26;32.50;;;16.17;;
83190;SDS011;73087;49.924;22.080;2023-10-19T00:19:26;38.47;;;16.25;;
83190;SDS011;73087;49.924;22.080;2023-10-19T00:20:27;37.13;;;15.82;;
83190;SDS011;73087;49.924;22.080;2023-10-19T00:21:27;30.42;;;15.93;;
83190;SDS011;73087;49.924;22.080;2023-10-19T00:22:28;26.73;;;13.07;;
83190;SDS011;73087;49.924;22.080;2023-10-19T00:23:28;24.27;;;12.20;;
83190;SDS011;73087;49.924;22.080;2023-10-19T00:24:29;25.13;;;12.13;;
83190;SDS011;73087;49.924;22.080;2023-10-19T00:25:29;25.60;;;11.85;;
83190;SDS011;73087;49.924;22.080;2023-10-19T00:26:30;26.00;;;12.05;;
83190;SDS011;73087;49.924;22.080;2023-10-19T00:27:30;25.15;;;12.05;;
83190;SDS011;73087;49.924;22.080;2023-10-19T00:28:31;25.15;;;12.45;;
83190;SDS011;73087;49.924;22.080;2023-10-19T00:29:31;23.33;;;12.13;;
83190;SDS011;73087;49.924;22.080;2023-10-19T00:30:32;27.25;;;12.63;;
83190;SDS011;73087;49.924;22.080;2023-10-19T00:31:33;25.77;;;12.70;;
83190;SDS011;73087;49.924;22.080;2023-10-19T00:32:33;25.27;;;12.73;;
83190;SDS011;73087;49.924;22.080;2023-10-19T00:33:35;24.83;;;12.05;;
83190;SDS011;73087;49.924;22.080;2023-10-19T00:34:36;29.17;;;13.80;;
83190;SDS011;73087;49.924;22.080;2023-10-19T00:35:36;26.73;;;12.85;;
83190;SDS011;73087;49.924;22.080;2023-10-19T00:36:37;24.83;;;11.82;;
83190;SDS011;73087;49.924;22.080;2023-10-19T00:37:37;25.83;;;11.60;;
83190;SDS011;73087;49.924;22.080;2023-10-19T00:38:38;27.25;;;13.13;;
83190;SDS011;73087;49.924;22.080;2023-10-19T00:39:39;26.05;;;11.77;;
83190;SDS011;73087;49.924;22.080;2023-10-19T00:40:40;26.70;;;12.43;;
83190;SDS011;73087;49.924;22.080;2023-10-19T00:41:40;26.23;;;12.10;;
83190;SDS011;73087;49.924;22.080;2023-10-19T00:42:41;34.20;;;13.68;;
83190;SDS011;73087;49.924;22.080;2023-10-19T00:43:41;26.23;;;13.10;;
83190;SDS011;73087;49.924;22.080;2023-10-19T00:44:42;31.40;;;14.13;;
83190;SDS011;73087;49.924;22.080;2023-10-19T00:45:43;31.58;;;13.27;;
83190;SDS011;73087;49.924;22.080;2023-10-19T00:46:43;26.35;;;13.10;;
83190;SDS011;73087;49.924;22.080;2023-10-19T00:47:44;27.17;;;13.20;;
83190;SDS011;73087;49.924;22.080;2023-10-19T00:48:47;31.90;;;14.02;;
83190;SDS011;73087;49.924;22.080;2023-10-19T00:49:49;31.88;;;14.75;;
83190;SDS011;73087;49.924;22.080;2023-10-19T00:50:50;33.83;;;15.65;;
83190;SDS011;73087;49.924;22.080;2023-10-19T00:51:51;44.08;;;18.83;;
83190;SDS011;73087;49.924;22.080;2023-10-19T00:52:53;44.42;;;20.55;;
83190;SDS011;73087;49.924;22.080;2023-10-19T00:53:54;40.45;;;18.70;;
83190;SDS011;73087;49.924;22.080;2023-10-19T00:54:55;38.58;;;17.83;;
83190;SDS011;73087;49.924;22.080;2023-10-19T00:55:56;35.25;;;16.20;;
83190;SDS011;73087;49.924;22.080;2023-10-19T00:56:56;39.33;;;17.58;;
83190;SDS011;73087;49.924;22.080;2023-10-19T00:57:58;35.85;;;16.10;;
83190;SDS011;73087;49.924;22.080;2023-10-19T00:59:00;40.25;;;17.83;;
83190;SDS011;73087;49.924;22.080;2023-10-19T01:00:01;37.35;;;17.35;;
83190;SDS011;73087;49.924;22.080;2023-10-19T01:01:02;38.95;;;17.48;;
83190;SDS011;73087;49.924;22.080;2023-10-19T01:02:03;36.42;;;15.55;;
83190;SDS011;73087;49.924;22.080;2023-10-19T01:03:04;39.30;;;17.13;;
83190;SDS011;73087;49.924;22.080;2023-10-19T01:04:07;37.42;;;18.55;;
83190;SDS011;73087;49.924;22.080;2023-10-19T01:05:08;36.13;;;16.23;;
83190;SDS011;73087;49.924;22.080;2023-10-19T01:06:09;37.00;;;17.48;;
83190;SDS011;73087;49.924;22.080;2023-10-19T01:07:09;34.35;;;16.95;;
83190;SDS011;73087;49.924;22.080;2023-10-19T01:08:10;34.47;;;15.30;;
83190;SDS011;73087;49.924;22.080;2023-10-19T01:09:11;33.92;;;16.88;;
83190;SDS011;73087;49.924;22.080;2023-10-19T01:10:12;35.15;;;17.02;;
83190;SDS011;73087;49.924;22.080;2023-10-19T01:11:13;34.17;;;15.80;;
83190;SDS011;73087;49.924;22.080;2023-10-19T01:12:13;31.80;;;15.85;;
83190;SDS011;73087;49.924;22.080;2023-10-19T01:13:14;29.23;;;15.48;;
83190;SDS011;73087;49.924;22.080;2023-10-19T01:14:18;21.15;;;10.00;;
83190;SDS011;73087;49.924;22.080;2023-10-19T01:15:19;28.90;;;13.60;;
83190;SDS011;73087;49.924;22.080;2023-10-19T01:16:21;23.58;;;9.98;;
83190;SDS011;73087;49.924;22.080;2023-10-19T01:17:22;22.67;;;11.35;;
83190;SDS011;73087;49.924;22.080;2023-10-19T01:18:22;20.80;;;10.43;;
83190;SDS011;73087;49.924;22.080;2023-10-19T01:19:24;26.38;;;11.73;;
83190;SDS011;73087;49.924;22.080;2023-10-19T01:20:25;28.45;;;13.20;;
83190;SDS011;73087;49.924;22.080;2023-10-19T01:21:27;29.25;;;11.70;;
83190;SDS011;73087;49.924;22.080;2023-10-19T01:22:28;22.73;;;9.68;;
83190;SDS011;73087;49.924;22.080;2023-10-19T01:23:30;25.95;;;10.73;;
83190;SDS011;73087;49.924;22.080;2023-10-19T01:24:30;22.60;;;9.35;;
83190;SDS011;73087;49.924;22.080;2023-10-19T01:25:31;26.17;;;10.85;;
83190;SDS011;73087;49.924;22.080;2023-10-19T01:26:31;22.30;;;9.43;;
83190;SDS011;73087;49.924;22.080;2023-10-19T01:27:32;23.27;;;10.32;;
83190;SDS011;73087;49.924;22.080;2023-10-19T01:28:33;21.33;;;10.10;;
83190;SDS011;73087;49.924;22.080;2023-10-19T01:29:34;21.55;;;9.70;;
83190;SDS011;73087;49.924;22.080;2023-10-19T01:30:35;21.63;;;9.90;;
83190;SDS011;73087;49.924;22.080;2023-10-19T01:31:36;21.48;;;10.38;;
83190;SDS011;73087;49.924;22.080;2023-10-19T01:32:36;19.20;;;9.55;;
83190;SDS011;73087;49.924;22.080;2023-10-19T01:33:37;19.13;;;9.60;;
83190;SDS011;73087;49.924;22.080;2023-10-19T01:34:37;20.08;;;8.95;;
83190;SDS011;73087;49.924;22.080;2023-10-19T01:35:38;25.05;;;11.65;;
83190;SDS011;73087;49.924;22.080;2023-10-19T01:36:38;26.40;;;13.25;;
83190;SDS011;73087;49.924;22.080;2023-10-19T01:37:39;27.20;;;13.35;;
83190;SDS011;73087;49.924;22.080;2023-10-19T01:38:41;22.88;;;11.27;;
83190;SDS011;73087;49.924;22.080;2023-10-19T01:39:42;25.98;;;11.27;;
83190;SDS011;73087;49.924;22.080;2023-10-19T01:40:42;21.45;;;10.80;;
83190;SDS011;73087;49.924;22.080;2023-10-19T01:41:43;26.30;;;11.27;;
83190;SDS011;73087;49.924;22.080;2023-10-19T01:42:43;22.83;;;10.73;;
83190;SDS011;73087;49.924;22.080;2023-10-19T01:43:44;22.77;;;11.55;;
83190;SDS011;73087;49.924;22.080;2023-10-19T01:44:46;22.42;;;11.02;;
83190;SDS011;73087;49.924;22.080;2023-10-19T01:45:46;25.05;;;10.60;;
83190;SDS011;73087;49.924;22.080;2023-10-19T01:46:47;22.25;;;10.23;;
83190;SDS011;73087;49.924;22.080;2023-10-19T01:47:48;25.60;;;11.98;;
83190;SDS011;73087;49.924;22.080;2023-10-19T01:48:49;21.48;;;10.25;;
83190;SDS011;73087;49.924;22.080;2023-10-19T01:49:50;21.80;;;10.55;;
83190;SDS011;73087;49.924;22.080;2023-10-19T01:50:51;20.10;;;9.95;;
83190;SDS011;73087;49.924;22.080;2023-10-19T01:51:51;22.05;;;10.88;;
83190;SDS011;73087;49.924;22.080;2023-10-19T01:52:52;21.70;;;10.75;;
83190;SDS011;73087;49.924;22.080;2023-10-19T01:53:54;21.40;;;10.20;;
83190;SDS011;73087;49.924;22.080;2023-10-19T01:54:55;24.27;;;10.65;;
83190;SDS011;73087;49.924;22.080;2023-10-19T01:55:56;24.27;;;11.05;;
83190;SDS011;73087;49.924;22.080;2023-10-19T01:56:57;20.42;;;10.40;;
83190;SDS011;73087;49.924;22.080;2023-10-19T01:57:58;22.77;;;10.35;;
83190;SDS011;73087;49.924;22.080;2023-10-19T01:58:58;21.65;;;10.75;;
83190;SDS011;73087;49.924;22.080;2023-10-19T01:59:59;24.45;;;10.77;;
83190;SDS011;73087;49.924;22.080;2023-10-19T02:00:59;22.30;;;10.02;;
83190;SDS011;73087;49.924;22.080;2023-10-19T02:02:00;26.70;;;11.02;;
83190;SDS011;73087;49.924;22.080;2023-10-19T02:03:00;32.05;;;10.73;;
83190;SDS011;73087;49.924;22.080;2023-10-19T02:04:02;21.95;;;10.23;;
83190;SDS011;73087;49.924;22.080;2023-10-19T02:05:04;25.40;;;10.70;;
83190;SDS011;73087;49.924;22.080;2023-10-19T02:06:05;24.88;;;10.43;;
83190;SDS011;73087;49.924;22.080;2023-10-19T02:07:06;21.73;;;10.70;;
83190;SDS011;73087;49.924;22.080;2023-10-19T02:08:07;24.63;;;11.30;;
83190;SDS011;73087;49.924;22.080;2023-10-19T02:09:09;23.77;;;11.40;;
83190;SDS011;73087;49.924;22.080;2023-10-19T02:10:11;25.08;;;11.05;;
83190;SDS011;73087;49.924;22.080;2023-10-19T02:11:11;29.05;;;12.52;;
83190;SDS011;73087;49.924;22.080;2023-10-19T02:12:12;29.85;;;11.57;;
83190;SDS011;73087;49.924;22.080;2023-10-19T02:13:13;23.67;;;10.30;;
83190;SDS011;73087;49.924;22.080;2023-10-19T02:14:13;29.98;;;11.02;;
83190;SDS011;73087;49.924;22.080;2023-10-19T02:15:14;22.35;;;10.82;;
83190;SDS011;73087;49.924;22.080;2023-10-19T02:16:15;20.95;;;8.80;;
83190;SDS011;73087;49.924;22.080;2023-10-19T02:17:16;24.40;;;10.18;;
83190;SDS011;73087;49.924;22.080;2023-10-19T02:18:16;21.38;;;10.75;;
83190;SDS011;73087;49.924;22.080;2023-10-19T02:19:17;21.58;;;10.18;;
83190;SDS011;73087;49.924;22.080;2023-10-19T02:20:18;20.45;;;9.05;;
83190;SDS011;73087;49.924;22.080;2023-10-19T02:21:18;18.73;;;9.15;;
83190;SDS011;73087;49.924;22.080;2023-10-19T02:22:19;16.33;;;8.43;;
83190;SDS011;73087;49.924;22.080;2023-10-19T02:23:20;23.17;;;8.65;;
83190;SDS011;73087;49.924;22.080;2023-10-19T02:24:22;21.17;;;9.23;;
83190;SDS011;73087;49.924;22.080;2023-10-19T02:25:23;20.20;;;8.77;;
83190;SDS011;73087;49.924;22.080;2023-10-19T02:26:24;19.27;;;8.63;;
83190;SDS011;73087;49.924;22.080;2023-10-19T02:27:24;18.60;;;8.98;;
83190;SDS011;73087;49.924;22.080;2023-10-19T02:28:25;17.35;;;8.20;;
83190;SDS011;73087;49.924;22.080;2023-10-19T02:29:26;21.55;;;9.25;;
83190;SDS011;73087;49.924;22.080;2023-10-19T02:30:26;18.80;;;8.85;;
83190;SDS011;73087;49.924;22.080;2023-10-19T02:31:27;20.77;;;9.48;;
83190;SDS011;73087;49.924;22.080;2023-10-19T02:32:27;21.17;;;9.43;;
83190;SDS011;73087;49.924;22.080;2023-10-19T02:33:28;22.25;;;9.98;;
83190;SDS011;73087;49.924;22.080;2023-10-19T02:34:28;17.55;;;8.63;;
83190;SDS011;73087;49.924;22.080;2023-10-19T02:35:29;19.05;;;8.35;;
83190;SDS011;73087;49.924;22.080;2023-10-19T02:36:30;18.77;;;8.55;;
83190;SDS011;73087;49.924;22.080;2023-10-19T02:37:31;18.90;;;8.43;;
83190;SDS011;73087;49.924;22.080;2023-10-19T02:38:31;25.75;;;8.23;;
83190;SDS011;73087;49.924;22.080;2023-10-19T02:39:33;17.60;;;8.35;;
83190;SDS011;73087;49.924;22.080;2023-10-19T02:40:34;14.23;;;7.90;;
83190;SDS011;73087;49.924;22.080;2023-10-19T02:41:35;18.13;;;8.82;;
83190;SDS011;73087;49.924;22.080;2023-10-19T02:42:36;18.55;;;7.90;;
83190;SDS011;73087;49.924;22.080;2023-10-19T02:43:37;17.92;;;9.05;;
83190;SDS011;73087;49.924;22.080;2023-10-19T02:44:37;20.80;;;9.05;;
83190;SDS011;73087;49.924;22.080;2023-10-19T02:45:38;18.33;;;8.45;;
83190;SDS011;73087;49.924;22.080;2023-10-19T02:46:38;20.20;;;9.65;;
83190;SDS011;73087;49.924;22.080;2023-10-19T02:47:39;17.13;;;8.50;;
83190;SDS011;73087;49.924;22.080;2023-10-19T02:48:39;20.42;;;9.45;;
83190;SDS011;73087;49.924;22.080;2023-10-19T02:49:40;23.27;;;8.93;;
83190;SDS011;73087;49.924;22.080;2023-10-19T02:50:41;17.27;;;8.60;;
83190;SDS011;73087;49.924;22.080;2023-10-19T02:51:42;19.38;;;8.93;;
83190;SDS011;73087;49.924;22.080;2023-10-19T02:52:43;19.88;;;8.48;;
83190;SDS011;73087;49.924;22.080;2023-10-19T02:53:43;17.20;;;8.75;;
83190;SDS011;73087;49.924;22.080;2023-10-19T02:54:45;21.70;;;9.30;;
83190;SDS011;73087;49.924;22.080;2023-10-19T02:55:46;17.65;;;8.90;;
83190;SDS011;73087;49.924;22.080;2023-10-19T02:56:46;21.42;;;9.10;;
83190;SDS011;73087;49.924;22.080;2023-10-19T02:57:47;22.38;;;9.45;;
83190;SDS011;73087;49.924;22.080;2023-10-19T02:58:47;20.42;;;9.60;;
83190;SDS011;73087;49.924;22.080;2023-10-19T02:59:48;20.73;;;10.13;;
83190;SDS011;73087;49.924;22.080;2023-10-19T03:00:49;20.17;;;10.07;;
83190;SDS011;73087;49.924;22.080;2023-10-19T03:01:49;16.98;;;8.88;;
83190;SDS011;73087;49.924;22.080;2023-10-19T03:02:50;24.00;;;9.80;;
83190;SDS011;73087;49.924;22.080;2023-10-19T03:03:51;20.35;;;8.35;;
83190;SDS011;73087;49.924;22.080;2023-10-19T03:04:52;15.65;;;8.40;;
83190;SDS011;73087;49.924;22.080;2023-10-19T03:05:53;17.27;;;7.72;;
83190;SDS011;73087;49.924;22.080;2023-10-19T03:06:54;25.55;;;9.82;;
83190;SDS011;73087;49.924;22.080;2023-10-19T03:07:54;19.80;;;8.65;;
83190;SDS011;73087;49.924;22.080;2023-10-19T03:08:55;19.40;;;8.05;;
83190;SDS011;73087;49.924;22.080;2023-10-19T03:09:57;19.65;;;9.57;;
83190;SDS011;73087;49.924;22.080;2023-10-19T03:10:57;18.70;;;9.40;;
83190;SDS011;73087;49.924;22.080;2023-10-19T03:11:58;16.27;;;8.63;;
83190;SDS011;73087;49.924;22.080;2023-10-19T03:12:58;18.63;;;8.82;;
83190;SDS011;73087;49.924;22.080;2023-10-19T03:13:59;16.60;;;8.70;;
83190;SDS011;73087;49.924;22.080;2023-10-19T03:14:59;20.95;;;8.98;;
83190;SDS011;73087;49.924;22.080;2023-10-19T03:16:00;22.42;;;9.88;;
83190;SDS011;73087;49.924;22.080;2023-10-19T03:17:00;23.08;;;10.13;;
83190;SDS011;73087;49.924;22.080;2023-10-19T03:18:01;21.20;;;10.23;;
83190;SDS011;73087;49.924;22.080;2023-10-19T03:19:01;22.10;;;11.63;;
83190;SDS011;73087;49.924;22.080;2023-10-19T03:20:02;23.50;;;10.45;;
83190;SDS011;73087;49.924;22.080;2023-10-19T03:21:03;23.77;;;9.35;;
83190;SDS011;73087;49.924;22.080;2023-10-19T03:22:04;21.35;;;8.70;;
83190;SDS011;73087;49.924;22.080;2023-10-19T03:23:05;22.38;;;9.15;;
83190;SDS011;73087;49.924;22.080;2023-10-19T03:24:06;17.60;;;8.70;;
83190;SDS011;73087;49.924;22.080;2023-10-19T03:25:08;19.23;;;9.48;;
83190;SDS011;73087;49.924;22.080;2023-10-19T03:26:09;18.05;;;8.20;;
83190;SDS011;73087;49.924;22.080;2023-10-19T03:27:10;14.57;;;7.22;;
83190;SDS011;73087;49.924;22.080;2023-10-19T03:28:12;16.20;;;7.47;;
83190;SDS011;73087;49.924;22.080;2023-10-19T03:29:12;15.05;;;7.93;;
83190;SDS011;73087;49.924;22.080;2023-10-19T03:30:13;14.52;;;7.70;;
83190;SDS011;73087;49.924;22.080;2023-10-19T03:31:14;17.25;;;8.05;;
83190;SDS011;73087;49.924;22.080;2023-10-19T03:32:14;19.23;;;8.65;;
83190;SDS011;73087;49.924;22.080;2023-10-19T03:33:15;14.75;;;7.78;;
83190;SDS011;73087;49.924;22.080;2023-10-19T03:34:16;15.35;;;7.78;;
83190;SDS011;73087;49.924;22.080;2023-10-19T03:35:16;17.00;;;8.70;;
83190;SDS011;73087;49.924;22.080;2023-10-19T03:36:17;17.77;;;8.98;;
83190;SDS011;73087;49.924;22.080;2023-10-19T03:37:17;15.10;;;7.38;;
83190;SDS011;73087;49.924;22.080;2023-10-19T03:38:18;18.20;;;7.88;;
83190;SDS011;73087;49.924;22.080;2023-10-19T03:39:18;27.88;;;9.32;;
83190;SDS011;73087;49.924;22.080;2023-10-19T03:40:20;22.45;;;7.80;;
83190;SDS011;73087;49.924;22.080;2023-10-19T03:41:21;14.00;;;6.80;;
83190;SDS011;73087;49.924;22.080;2023-10-19T03:42:22;16.98;;;8.77;;
83190;SDS011;73087;49.924;22.080;2023-10-19T03:43:22;21.10;;;9.68;;
83190;SDS011;73087;49.924;22.080;2023-10-19T03:44:23;15.35;;;7.50;;
83190;SDS011;73087;49.924;22.080;2023-10-19T03:45:24;28.15;;;8.77;;
83190;SDS011;73087;49.924;22.080;2023-10-19T03:46:24;23.67;;;9.55;;
83190;SDS011;73087;49.924;22.080;2023-10-19T03:47:25;21.08;;;9.48;;
83190;SDS011;73087;49.924;22.080;2023-10-19T03:48:25;23.65;;;9.98;;
83190;SDS011;73087;49.924;22.080;2023-10-19T03:49:26;21.20;;;9.43;;
83190;SDS011;73087;49.924;22.080;2023-10-19T03:50:26;23.58;;;8.90;;
83190;SDS011;73087;49.924;22.080;2023-10-19T03:51:27;24.55;;;9.35;;
83190;SDS011;73087;49.924;22.080;2023-10-19T03:52:27;18.15;;;8.82;;
83190;SDS011;73087;49.924;22.080;2023-10-19T03:53:28;17.48;;;8.68;;
83190;SDS011;73087;49.924;22.080;2023-10-19T03:54:29;18.08;;;8.43;;
83190;SDS011;73087;49.924;22.080;2023-10-19T03:55:30;17.02;;;8.23;;
83190;SDS011;73087;49.924;22.080;2023-10-19T03:56:31;16.42;;;8.38;;
83190;SDS011;73087;49.924;22.080;2023-10-19T03:57:31;16.67;;;8.38;;
83190;SDS011;73087;49.924;22.080;2023-10-19T03:58:32;19.55;;;8.93;;
83190;SDS011;73087;49.924;22.080;2023-10-19T03:59:33;22.13;;;9.13;;
83190;SDS011;73087;49.924;22.080;2023-10-19T04:00:33;23.50;;;8.63;;
83190;SDS011;73087;49.924;22.080;2023-10-19T04:01:34;28.63;;;11.90;;
83190;SDS011;73087;49.924;22.080;2023-10-19T04:02:34;30.23;;;13.82;;
83190;SDS011;73087;49.924;22.080;2023-10-19T04:03:35;35.05;;;14.07;;
83190;SDS011;73087;49.924;22.080;2023-10-19T04:04:35;37.55;;;16.58;;
83190;SDS011;73087;49.924;22.080;2023-10-19T04:05:36;37.00;;;16.35;;
83190;SDS011;73087;49.924;22.080;2023-10-19T04:06:36;31.15;;;14.27;;
83190;SDS011;73087;49.924;22.080;2023-10-19T04:07:37;32.30;;;12.45;;
83190;SDS011;73087;49.924;22.080;2023-10-19T04:08:38;27.13;;;12.38;;
83190;SDS011;73087;49.924;22.080;2023-10-19T04:09:39;25.35;;;12.93;;
83190;SDS011;73087;49.924;22.080;2023-10-19T04:10:41;30.40;;;12.43;;
83190;SDS011;73087;49.924;22.080;2023-10-19T04:11:42;31.90;;;14.30;;
83190;SDS011;73087;49.924;22.080;2023-10-19T04:12:42;29.48;;;14.15;;
83190;SDS011;73087;49.924;22.080;2023-10-19T04:13:43;61.42;;;25.38;;
83190;SDS011;73087;49.924;22.080;2023-10-19T04:14:43;63.00;;;24.48;;
83190;SDS011;73087;49.924;22.080;2023-10-19T04:15:44;82.03;;;28.80;;
83190;SDS011;73087;49.924;22.080;2023-10-19T04:16:44;73.68;;;28.92;;
83190;SDS011;73087;49.924;22.080;2023-10-19T04:17:45;81.43;;;32.90;;
83190;SDS011;73087;49.924;22.080;2023-10-19T04:18:47;106.03;;;40.08;;
83190;SDS011;73087;49.924;22.080;2023-10-19T04:19:47;100.25;;;39.13;;
83190;SDS011;73087;49.924;22.080;2023-10-19T04:20:48;72.05;;;30.35;;
83190;SDS011;73087;49.924;22.080;2023-10-19T04:21:48;55.70;;;22.15;;
83190;SDS011;73087;49.924;22.080;2023-10-19T04:22:49;57.15;;;24.92;;
83190;SDS011;73087;49.924;22.080;2023-10-19T04:23:50;64.88;;;27.00;;
83190;SDS011;73087;49.924;22.080;2023-10-19T04:24:50;77.40;;;34.08;;
83190;SDS011;73087;49.924;22.080;2023-10-19T04:25:53;67.57;;;27.10;;
83190;SDS011;73087;49.924;22.080;2023-10-19T04:26:53;57.15;;;25.75;;
83190;SDS011;73087;49.924;22.080;2023-10-19T04:27:54;76.13;;;31.52;;
83190;SDS011;73087;49.924;22.080;2023-10-19T04:28:54;69.78;;;30.58;;
83190;SDS011;73087;49.924;22.080;2023-10-19T04:29:55;60.40;;;24.73;;
83190;SDS011;73087;49.924;22.080;2023-10-19T04:30:56;54.33;;;23.90;;
83190;SDS011;73087;49.924;22.080;2023-10-19T04:31:57;50.97;;;22.45;;
83190;SDS011;73087;49.924;22.080;2023-10-19T04:32:57;36.33;;;16.20;;
83190;SDS011;73087;49.924;22.080;2023-10-19T04:33:58;35.45;;;15.50;;
83190;SDS011;73087;49.924;22.080;2023-10-19T04:34:58;18.65;;;8.38;;
83190;SDS011;73087;49.924;22.080;2023-10-19T04:35:59;17.70;;;8.68;;
83190;SDS011;73087;49.924;22.080;2023-10-19T04:37:00;14.77;;;7.00;;
83190;SDS011;73087;49.924;22.080;2023-10-19T04:38:00;14.65;;;6.57;;
83190;SDS011;73087;49.924;22.080;2023-10-19T04:39:01;20.38;;;7.85;;
83190;SDS011;73087;49.924;22.080;2023-10-19T04:40:02;16.95;;;7.03;;
83190;SDS011;73087;49.924;22.080;2023-10-19T04:41:07;17.30;;;7.20;;
83190;SDS011;73087;49.924;22.080;2023-10-19T04:42:09;15.45;;;7.43;;
83190;SDS011;73087;49.924;22.080;2023-10-19T04:43:09;14.55;;;6.90;;
83190;SDS011;73087;49.924;22.080;2023-10-19T04:44:10;16.63;;;6.68;;
83190;SDS011;73087;49.924;22.080;2023-10-19T04:45:10;14.13;;;6.35;;
83190;SDS011;73087;49.924;22.080;2023-10-19T04:46:11;16.23;;;7.57;;
83190;SDS011;73087;49.924;22.080;2023-10-19T04:47:11;15.30;;;6.80;;
83190;SDS011;73087;49.924;22.080;2023-10-19T04:48:12;12.68;;;6.40;;
83190;SDS011;73087;49.924;22.080;2023-10-19T04:49:12;15.38;;;7.03;;
83190;SDS011;73087;49.924;22.080;2023-10-19T04:50:13;13.32;;;7.07;;
83190;SDS011;73087;49.924;22.080;2023-10-19T04:51:14;18.90;;;8.25;;
83190;SDS011;73087;49.924;22.080;2023-10-19T04:52:14;20.27;;;9.57;;
83190;SDS011;73087;49.924;22.080;2023-10-19T04:53:15;23.55;;;9.68;;
83190;SDS011;73087;49.924;22.080;2023-10-19T04:54:15;22.73;;;10.05;;
83190;SDS011;73087;49.924;22.080;2023-10-19T04:55:16;20.08;;;8.43;;
83190;SDS011;73087;49.924;22.080;2023-10-19T04:56:18;26.60;;;9.82;;
83190;SDS011;73087;49.924;22.080;2023-10-19T04:57:18;21.92;;;10.00;;
83190;SDS011;73087;49.924;22.080;2023-10-19T04:58:19;26.60;;;11.82;;
83190;SDS011;73087;49.924;22.080;2023-10-19T04:59:19;24.25;;;9.80;;
83190;SDS011;73087;49.924;22.080;2023-10-19T05:00:20;30.73;;;10.05;;
83190;SDS011;73087;49.924;22.080;2023-10-19T05:01:20;25.95;;;9.02;;
83190;SDS011;73087;49.924;22.080;2023-10-19T05:02:21;21.85;;;9.38;;
83190;SDS011;73087;49.924;22.080;2023-10-19T05:03:21;19.52;;;9.45;;
83190;SDS011;73087;49.924;22.080;2023-10-19T05:04:22;17.90;;;8.52;;
83190;SDS011;73087;49.924;22.080;2023-10-19T05:05:22;21.33;;;9.45;;
83190;SDS011;73087;49.924;22.080;2023-10-19T05:06:23;18.58;;;9.13;;
83190;SDS011;73087;49.924;22.080;2023-10-19T05:07:24;20.05;;;8.13;;
83190;SDS011;73087;49.924;22.080;2023-10-19T05:08:24;14.55;;;7.50;;
83190;SDS011;73087;49.924;22.080;2023-10-19T05:09:25;24.77;;;9.02;;
83190;SDS011;73087;49.924;22.080;2023-10-19T05:10:25;20.40;;;9.10;;
83190;SDS011;73087;49.924;22.080;2023-10-19T05:11:27;26.80;;;8.30;;
83190;SDS011;73087;49.924;22.080;2023-10-19T05:12:28;17.95;;;7.93;;
83190;SDS011;73087;49.924;22.080;2023-10-19T05:13:30;20.55;;;8.43;;
83190;SDS011;73087;49.924;22.080;2023-10-19T05:14:31;21.85;;;7.97;;
83190;SDS011;73087;49.924;22.080;2023-10-19T05:15:31;19.42;;;7.47;;
83190;SDS011;73087;49.924;22.080;2023-10-19T05:16:32;20.40;;;7.95;;
83190;SDS011;73087;49.924;22.080;2023-10-19T05:17:32;25.92;;;8.45;;
83190;SDS011;73087;49.924;22.080;2023-10-19T05:18:33;27.35;;;9.30;;
83190;SDS011;73087;49.924;22.080;2023-10-19T05:19:34;23.80;;;9.07;;
83190;SDS011;73087;49.924;22.080;2023-10-19T05:20:34;17.23;;;8.05;;
83190;SDS011;73087;49.924;22.080;2023-10-19T05:21:35;16.52;;;8.88;;
83190;SDS011;73087;49.924;22.080;2023-10-19T05:22:36;25.35;;;9.80;;
83190;SDS011;73087;49.924;22.080;2023-10-19T05:23:36;19.58;;;9.68;;
83190;SDS011;73087;49.924;22.080;2023-10-19T05:24:37;32.42;;;11.05;;
83190;SDS011;73087;49.924;22.080;2023-10-19T05:25:37;26.80;;;10.63;;
83190;SDS011;73087;49.924;22.080;2023-10-19T05:26:39;67.57;;;14.25;;
83190;SDS011;73087;49.924;22.080;2023-10-19T05:27:39;35.72;;;11.30;;
83190;SDS011;73087;49.924;22.080;2023-10-19T05:28:40;33.55;;;12.68;;
83190;SDS011;73087;49.924;22.080;2023-10-19T05:29:41;51.42;;;11.77;;
83190;SDS011;73087;49.924;22.080;2023-10-19T05:30:41;38.25;;;10.80;;
83190;SDS011;73087;49.924;22.080;2023-10-19T05:31:42;30.48;;;10.95;;
83190;SDS011;73087;49.924;22.080;2023-10-19T05:32:42;44.35;;;10.57;;
83190;SDS011;73087;49.924;22.080;2023-10-19T05:33:43;57.88;;;14.98;;
83190;SDS011;73087;49.924;22.080;2023-10-19T05:34:43;56.50;;;16.27;;
83190;SDS011;73087;49.924;22.080;2023-10-19T05:35:44;44.33;;;18.50;;
83190;SDS011;73087;49.924;22.080;2023-10-19T05:36:44;44.10;;;22.65;;
83190;SDS011;73087;49.924;22.080;2023-10-19T05:37:45;42.60;;;21.98;;
83190;SDS011;73087;49.924;22.080;2023-10-19T05:38:45;37.20;;;15.20;;
83190;SDS011;73087;49.924;22.080;2023-10-19T05:39:46;36.70;;;14.75;;
83190;SDS011;73087;49.924;22.080;2023-10-19T05:40:46;24.25;;;11.20;;
83190;SDS011;73087;49.924;22.080;2023-10-19T05:41:48;36.40;;;15.27;;
83190;SDS011;73087;49.924;22.080;2023-10-19T05:42:49;33.22;;;14.93;;
83190;SDS011;73087;49.924;22.080;2023-10-19T05:43:49;32.58;;;14.07;;
83190;SDS011;73087;49.924;22.080;2023-10-19T05:44:50;41.33;;;18.35;;
83190;SDS011;73087;49.924;22.080;2023-10-19T05:45:51;34.67;;;16.92;;
83190;SDS011;73087;49.924;22.080;2023-10-19T05:46:51;37.72;;;22.40;;
83190;SDS011;73087;49.924;22.080;2023-10-19T05:47:52;62.15;;;34.70;;
83190;SDS011;73087;49.924;22.080;2023-10-19T05:48:52;40.90;;;21.23;;
83190;SDS011;73087;49.924;22.080;2023-10-19T05:49:53;35.42;;;18.13;;
83190;SDS011;73087;49.924;22.080;2023-10-19T05:50:53;29.13;;;14.32;;
83190;SDS011;73087;49.924;22.080;2023-10-19T05:51:54;35.80;;;13.95;;